sensor_id;sensor_type;location;lat;lon;timestamp;temperature;humidity
76168;DHT22;64927;48.214;16.378;2023-02-01T00:00:46;6.60;63.10
76168;DHT22;64927;48.214;16.378;2023-02-01T00:03:14;6.60;63.20
76168;DHT22;64927;48.214;16.378;2023-02-01T00:05:40;6.50;63.40
76168;DHT22;64927;48.214;16.378;2023-02-01T00:08:05;6.50;63.40
76168;DHT22;64927;48.214;16.378;2023-02-01T00:10:33;6.60;63.50
76168;DHT22;64927;48.214;16.378;2023-02-01T00:12:59;6.50;63.50
76168;DHT22;64927;48.214;16.378;2023-02-01T00:15:24;6.60;63.40
76168;DHT22;64927;48.214;16.378;2023-02-01T00:17:55;6.60;64.20
76168;DHT22;64927;48.214;16.378;2023-02-01T00:20:21;6.60;63.30
76168;DHT22;64927;48.214;16.378;2023-02-01T00:22:49;6.60;63.50
76168;DHT22;64927;48.214;16.378;2023-02-01T00:25:15;6.60;63.50
76168;DHT22;64927;48.214;16.378;2023-02-01T00:27:40;6.60;63.40
76168;DHT22;64927;48.214;16.378;2023-02-01T00:30:10;6.60;63.20
76168;DHT22;64927;48.214;16.378;2023-02-01T00:32:39;6.70;63.20
76168;DHT22;64927;48.214;16.378;2023-02-01T00:35:05;6.60;63.10
76168;DHT22;64927;48.214;16.378;2023-02-01T00:37:31;6.70;63.00
76168;DHT22;64927;48.214;16.378;2023-02-01T00:39:56;6.70;62.90
76168;DHT22;64927;48.214;16.378;2023-02-01T00:42:22;6.60;63.20
76168;DHT22;64927;48.214;16.378;2023-02-01T00:44:48;6.60;63.10
76168;DHT22;64927;48.214;16.378;2023-02-01T00:47:13;6.70;62.90
76168;DHT22;64927;48.214;16.378;2023-02-01T00:49:39;6.70;62.80
76168;DHT22;64927;48.214;16.378;2023-02-01T00:52:04;6.60;62.90
76168;DHT22;64927;48.214;16.378;2023-02-01T00:54:30;6.70;62.90
76168;DHT22;64927;48.214;16.378;2023-02-01T00:56:56;6.70;62.80
76168;DHT22;64927;48.214;16.378;2023-02-01T00:59:21;6.70;63.00
76168;DHT22;64927;48.214;16.378;2023-02-01T01:01:47;6.70;63.10
76168;DHT22;64927;48.214;16.378;2023-02-01T01:04:12;6.70;63.00
76168;DHT22;64927;48.214;16.378;2023-02-01T01:06:38;6.70;63.00
76168;DHT22;64927;48.214;16.378;2023-02-01T01:09:06;6.70;62.80
76168;DHT22;64927;48.214;16.378;2023-02-01T01:11:35;6.70;62.80
76168;DHT22;64927;48.214;16.378;2023-02-01T01:14:06;6.70;63.00
76168;DHT22;64927;48.214;16.378;2023-02-01T01:16:32;6.80;62.70
76168;DHT22;64927;48.214;16.378;2023-02-01T01:18:59;6.80;62.70
76168;DHT22;64927;48.214;16.378;2023-02-01T01:21:26;6.80;62.40
76168;DHT22;64927;48.214;16.378;2023-02-01T01:23:54;6.80;62.20
76168;DHT22;64927;48.214;16.378;2023-02-01T01:26:23;6.90;62.30
76168;DHT22;64927;48.214;16.378;2023-02-01T01:28:49;6.80;62.10
76168;DHT22;64927;48.214;16.378;2023-02-01T01:31:19;6.80;62.10
76168;DHT22;64927;48.214;16.378;2023-02-01T01:33:49;6.90;62.10
76168;DHT22;64927;48.214;16.378;2023-02-01T01:36:15;6.90;62.20
76168;DHT22;64927;48.214;16.378;2023-02-01T01:38:41;6.90;61.90
76168;DHT22;64927;48.214;16.378;2023-02-01T01:41:07;6.90;61.90
76168;DHT22;64927;48.214;16.378;2023-02-01T01:43:47;6.90;61.90
76168;DHT22;64927;48.214;16.378;2023-02-01T01:46:34;6.90;62.00
76168;DHT22;64927;48.214;16.378;2023-02-01T01:49:18;6.90;62.00
76168;DHT22;64927;48.214;16.378;2023-02-01T01:51:54;6.90;62.00
76168;DHT22;64927;48.214;16.378;2023-02-01T01:56:57;6.90;62.10
76168;DHT22;64927;48.214;16.378;2023-02-01T01:59:24;6.90;62.10
76168;DHT22;64927;48.214;16.378;2023-02-01T02:01:50;6.90;62.10
76168;DHT22;64927;48.214;16.378;2023-02-01T02:04:17;6.90;62.10
76168;DHT22;64927;48.214;16.378;2023-02-01T02:06:50;6.90;62.10
76168;DHT22;64927;48.214;16.378;2023-02-01T02:09:17;6.90;62.30
76168;DHT22;64927;48.214;16.378;2023-02-01T02:11:45;6.90;62.40
76168;DHT22;64927;48.214;16.378;2023-02-01T02:14:15;6.80;62.40
76168;DHT22;64927;48.214;16.378;2023-02-01T02:17:06;6.90;62.70
76168;DHT22;64927;48.214;16.378;2023-02-01T02:28:31;7.10;62.20
76168;DHT22;64927;48.214;16.378;2023-02-01T02:31:33;7.10;62.20
76168;DHT22;64927;48.214;16.378;2023-02-01T02:34:39;7.10;62.30
76168;DHT22;64927;48.214;16.378;2023-02-01T02:40:14;7.10;62.50
76168;DHT22;64927;48.214;16.378;2023-02-01T02:45:55;7.00;62.70
76168;DHT22;64927;48.214;16.378;2023-02-01T02:51:41;7.00;62.90
76168;DHT22;64927;48.214;16.378;2023-02-01T02:54:31;7.00;62.90
76168;DHT22;64927;48.214;16.378;2023-02-01T02:57:36;7.00;62.90
76168;DHT22;64927;48.214;16.378;2023-02-01T03:00:24;7.00;62.90
76168;DHT22;64927;48.214;16.378;2023-02-01T03:03:08;7.00;62.80
76168;DHT22;64927;48.214;16.378;2023-02-01T03:05:53;7.10;62.90
76168;DHT22;64927;48.214;16.378;2023-02-01T03:08:24;7.10;62.60
76168;DHT22;64927;48.214;16.378;2023-02-01T03:16:24;7.10;62.60
76168;DHT22;64927;48.214;16.378;2023-02-01T03:24:17;7.00;62.60
76168;DHT22;64927;48.214;16.378;2023-02-01T03:27:00;7.00;62.30
76168;DHT22;64927;48.214;16.378;2023-02-01T03:29:32;7.00;62.50
76168;DHT22;64927;48.214;16.378;2023-02-01T03:32:01;6.90;62.70
76168;DHT22;64927;48.214;16.378;2023-02-01T03:34:27;7.00;62.70
76168;DHT22;64927;48.214;16.378;2023-02-01T03:37:06;7.00;62.60
76168;DHT22;64927;48.214;16.378;2023-02-01T03:42:39;7.10;62.10
76168;DHT22;64927;48.214;16.378;2023-02-01T03:45:16;7.10;62.10
76168;DHT22;64927;48.214;16.378;2023-02-01T03:47:49;7.10;61.60
76168;DHT22;64927;48.214;16.378;2023-02-01T03:50:20;7.10;61.80
76168;DHT22;64927;48.214;16.378;2023-02-01T03:53:05;7.10;61.90
76168;DHT22;64927;48.214;16.378;2023-02-01T03:55:32;7.10;62.00
76168;DHT22;64927;48.214;16.378;2023-02-01T04:00:29;7.10;61.50
76168;DHT22;64927;48.214;16.378;2023-02-01T04:02:59;7.10;61.50
76168;DHT22;64927;48.214;16.378;2023-02-01T04:05:25;7.20;61.50
76168;DHT22;64927;48.214;16.378;2023-02-01T04:07:50;7.20;61.50
76168;DHT22;64927;48.214;16.378;2023-02-01T04:10:16;7.20;61.80
76168;DHT22;64927;48.214;16.378;2023-02-01T04:12:42;7.20;61.80
76168;DHT22;64927;48.214;16.378;2023-02-01T04:15:08;7.10;61.90
76168;DHT22;64927;48.214;16.378;2023-02-01T04:17:34;7.10;62.10
76168;DHT22;64927;48.214;16.378;2023-02-01T04:19:59;7.20;62.10
76168;DHT22;64927;48.214;16.378;2023-02-01T04:22:25;7.10;62.10
76168;DHT22;64927;48.214;16.378;2023-02-01T04:24:51;7.20;62.10
76168;DHT22;64927;48.214;16.378;2023-02-01T04:27:16;7.30;61.90
76168;DHT22;64927;48.214;16.378;2023-02-01T04:29:45;7.20;62.10
76168;DHT22;64927;48.214;16.378;2023-02-01T04:32:10;7.20;62.20
76168;DHT22;64927;48.214;16.378;2023-02-01T04:34:36;7.20;62.40
76168;DHT22;64927;48.214;16.378;2023-02-01T04:37:02;7.10;62.60
76168;DHT22;64927;48.214;16.378;2023-02-01T04:39:27;7.20;62.50
76168;DHT22;64927;48.214;16.378;2023-02-01T04:41:53;7.30;62.30
76168;DHT22;64927;48.214;16.378;2023-02-01T04:44:19;7.40;62.20
76168;DHT22;64927;48.214;16.378;2023-02-01T04:46:47;7.30;62.50
76168;DHT22;64927;48.214;16.378;2023-02-01T04:49:13;7.40;62.60
76168;DHT22;64927;48.214;16.378;2023-02-01T04:51:40;7.30;62.70
76168;DHT22;64927;48.214;16.378;2023-02-01T04:54:06;7.40;62.80
76168;DHT22;64927;48.214;16.378;2023-02-01T04:56:36;7.40;62.70
76168;DHT22;64927;48.214;16.378;2023-02-01T04:59:03;7.40;62.80
76168;DHT22;64927;48.214;16.378;2023-02-01T05:01:29;7.40;62.80
76168;DHT22;64927;48.214;16.378;2023-02-01T05:03:54;7.40;62.90
76168;DHT22;64927;48.214;16.378;2023-02-01T05:06:22;7.40;62.80
76168;DHT22;64927;48.214;16.378;2023-02-01T05:08:50;7.40;63.10
76168;DHT22;64927;48.214;16.378;2023-02-01T05:11:16;7.40;64.00
76168;DHT22;64927;48.214;16.378;2023-02-01T05:14:00;7.40;63.20
76168;DHT22;64927;48.214;16.378;2023-02-01T05:16:26;7.40;63.20
76168;DHT22;64927;48.214;16.378;2023-02-01T05:18:54;7.50;63.20
76168;DHT22;64927;48.214;16.378;2023-02-01T05:21:20;7.40;63.10
76168;DHT22;64927;48.214;16.378;2023-02-01T05:23:49;7.50;63.40
76168;DHT22;64927;48.214;16.378;2023-02-01T05:26:33;7.50;63.80
76168;DHT22;64927;48.214;16.378;2023-02-01T05:28:59;7.40;64.50
76168;DHT22;64927;48.214;16.378;2023-02-01T05:31:27;7.40;64.90
76168;DHT22;64927;48.214;16.378;2023-02-01T05:33:55;7.40;65.30
76168;DHT22;64927;48.214;16.378;2023-02-01T05:36:21;7.40;65.80
76168;DHT22;64927;48.214;16.378;2023-02-01T05:38:47;7.30;66.20
76168;DHT22;64927;48.214;16.378;2023-02-01T05:41:12;7.30;66.40
76168;DHT22;64927;48.214;16.378;2023-02-01T05:43:38;7.30;66.40
76168;DHT22;64927;48.214;16.378;2023-02-01T05:46:04;7.30;66.10
76168;DHT22;64927;48.214;16.378;2023-02-01T05:48:30;7.20;66.40
76168;DHT22;64927;48.214;16.378;2023-02-01T05:50:55;7.20;66.30
76168;DHT22;64927;48.214;16.378;2023-02-01T05:53:21;7.20;66.00
76168;DHT22;64927;48.214;16.378;2023-02-01T05:55:47;7.30;66.10
76168;DHT22;64927;48.214;16.378;2023-02-01T05:58:12;7.40;65.90
76168;DHT22;64927;48.214;16.378;2023-02-01T06:00:39;7.40;65.50
76168;DHT22;64927;48.214;16.378;2023-02-01T06:03:05;7.40;65.40
76168;DHT22;64927;48.214;16.378;2023-02-01T06:05:31;7.40;65.10
76168;DHT22;64927;48.214;16.378;2023-02-01T06:07:59;7.40;65.00
76168;DHT22;64927;48.214;16.378;2023-02-01T06:10:25;7.40;64.80
76168;DHT22;64927;48.214;16.378;2023-02-01T06:12:50;7.40;64.80
76168;DHT22;64927;48.214;16.378;2023-02-01T06:15:16;7.50;64.60
76168;DHT22;64927;48.214;16.378;2023-02-01T06:17:44;7.40;64.50
76168;DHT22;64927;48.214;16.378;2023-02-01T06:20:12;7.50;64.40
76168;DHT22;64927;48.214;16.378;2023-02-01T06:22:42;7.50;64.10
76168;DHT22;64927;48.214;16.378;2023-02-01T06:25:10;7.50;64.20
76168;DHT22;64927;48.214;16.378;2023-02-01T06:27:38;7.60;63.80
76168;DHT22;64927;48.214;16.378;2023-02-01T06:30:05;7.60;63.50
76168;DHT22;64927;48.214;16.378;2023-02-01T06:32:31;7.70;63.40
76168;DHT22;64927;48.214;16.378;2023-02-01T06:34:59;7.70;63.40
76168;DHT22;64927;48.214;16.378;2023-02-01T06:37:28;7.70;63.10
76168;DHT22;64927;48.214;16.378;2023-02-01T06:39:55;7.70;63.00
76168;DHT22;64927;48.214;16.378;2023-02-01T06:42:20;7.70;63.00
76168;DHT22;64927;48.214;16.378;2023-02-01T06:44:46;7.80;62.90
76168;DHT22;64927;48.214;16.378;2023-02-01T06:47:14;7.80;62.70
76168;DHT22;64927;48.214;16.378;2023-02-01T06:49:39;7.90;62.60
76168;DHT22;64927;48.214;16.378;2023-02-01T06:52:06;7.90;62.50
76168;DHT22;64927;48.214;16.378;2023-02-01T06:54:31;7.90;62.60
76168;DHT22;64927;48.214;16.378;2023-02-01T06:57:01;8.00;62.20
76168;DHT22;64927;48.214;16.378;2023-02-01T06:59:26;8.00;62.20
76168;DHT22;64927;48.214;16.378;2023-02-01T07:01:52;8.00;62.80
76168;DHT22;64927;48.214;16.378;2023-02-01T07:04:18;7.90;63.60
76168;DHT22;64927;48.214;16.378;2023-02-01T07:06:48;7.70;63.80
76168;DHT22;64927;48.214;16.378;2023-02-01T07:09:14;7.70;64.00
76168;DHT22;64927;48.214;16.378;2023-02-01T07:11:40;7.70;64.10
76168;DHT22;64927;48.214;16.378;2023-02-01T07:14:10;7.70;64.00
76168;DHT22;64927;48.214;16.378;2023-02-01T07:16:36;7.70;64.20
76168;DHT22;64927;48.214;16.378;2023-02-01T07:19:02;7.80;63.90
76168;DHT22;64927;48.214;16.378;2023-02-01T07:21:28;7.90;63.10
76168;DHT22;64927;48.214;16.378;2023-02-01T07:23:54;7.90;63.10
76168;DHT22;64927;48.214;16.378;2023-02-01T07:26:20;7.90;63.20
76168;DHT22;64927;48.214;16.378;2023-02-01T07:28:46;7.90;62.60
76168;DHT22;64927;48.214;16.378;2023-02-01T07:31:17;8.00;62.60
76168;DHT22;64927;48.214;16.378;2023-02-01T07:33:48;8.00;62.40
76168;DHT22;64927;48.214;16.378;2023-02-01T07:36:20;8.00;61.90
76168;DHT22;64927;48.214;16.378;2023-02-01T07:38:45;8.10;62.00
76168;DHT22;64927;48.214;16.378;2023-02-01T07:41:17;8.10;61.80
76168;DHT22;64927;48.214;16.378;2023-02-01T07:43:43;8.00;62.00
76168;DHT22;64927;48.214;16.378;2023-02-01T07:46:12;8.10;61.80
76168;DHT22;64927;48.214;16.378;2023-02-01T07:48:38;8.00;61.60
76168;DHT22;64927;48.214;16.378;2023-02-01T07:51:11;8.20;61.60
76168;DHT22;64927;48.214;16.378;2023-02-01T07:53:40;8.20;61.20
76168;DHT22;64927;48.214;16.378;2023-02-01T07:56:16;8.20;61.40
76168;DHT22;64927;48.214;16.378;2023-02-01T07:58:43;8.20;61.00
76168;DHT22;64927;48.214;16.378;2023-02-01T08:01:22;8.10;61.30
76168;DHT22;64927;48.214;16.378;2023-02-01T08:03:52;8.20;61.00
76168;DHT22;64927;48.214;16.378;2023-02-01T08:06:19;8.20;61.30
76168;DHT22;64927;48.214;16.378;2023-02-01T08:08:48;8.20;61.60
76168;DHT22;64927;48.214;16.378;2023-02-01T08:11:15;8.30;62.30
76168;DHT22;64927;48.214;16.378;2023-02-01T08:13:44;8.20;63.20
76168;DHT22;64927;48.214;16.378;2023-02-01T08:16:11;8.20;63.10
76168;DHT22;64927;48.214;16.378;2023-02-01T08:18:37;8.10;63.30
76168;DHT22;64927;48.214;16.378;2023-02-01T08:21:08;8.10;63.70
76168;DHT22;64927;48.214;16.378;2023-02-01T08:23:37;8.20;63.50
76168;DHT22;64927;48.214;16.378;2023-02-01T08:26:24;8.20;63.50
76168;DHT22;64927;48.214;16.378;2023-02-01T08:28:52;8.30;63.30
76168;DHT22;64927;48.214;16.378;2023-02-01T08:31:22;8.30;62.80
76168;DHT22;64927;48.214;16.378;2023-02-01T08:33:50;8.40;62.60
76168;DHT22;64927;48.214;16.378;2023-02-01T08:36:20;8.40;61.70
76168;DHT22;64927;48.214;16.378;2023-02-01T08:38:46;8.40;61.70
76168;DHT22;64927;48.214;16.378;2023-02-01T08:41:14;8.50;61.70
76168;DHT22;64927;48.214;16.378;2023-02-01T08:43:41;8.50;61.20
76168;DHT22;64927;48.214;16.378;2023-02-01T08:46:08;8.50;61.40
76168;DHT22;64927;48.214;16.378;2023-02-01T08:48:34;8.50;60.80
76168;DHT22;64927;48.214;16.378;2023-02-01T08:51:11;8.50;60.60
76168;DHT22;64927;48.214;16.378;2023-02-01T08:53:38;8.50;60.60
76168;DHT22;64927;48.214;16.378;2023-02-01T08:56:08;8.50;60.40
76168;DHT22;64927;48.214;16.378;2023-02-01T08:58:34;8.50;59.90
76168;DHT22;64927;48.214;16.378;2023-02-01T09:01:08;8.50;59.80
76168;DHT22;64927;48.214;16.378;2023-02-01T09:03:36;8.50;59.50
76168;DHT22;64927;48.214;16.378;2023-02-01T09:06:11;8.60;59.10
76168;DHT22;64927;48.214;16.378;2023-02-01T09:08:38;8.60;59.80
76168;DHT22;64927;48.214;16.378;2023-02-01T09:11:10;8.70;59.60
76168;DHT22;64927;48.214;16.378;2023-02-01T09:13:36;8.70;59.40
76168;DHT22;64927;48.214;16.378;2023-02-01T09:16:02;8.80;59.60
76168;DHT22;64927;48.214;16.378;2023-02-01T09:18:28;8.70;60.10
76168;DHT22;64927;48.214;16.378;2023-02-01T09:20:54;8.70;60.90
76168;DHT22;64927;48.214;16.378;2023-02-01T09:23:20;8.60;61.80
76168;DHT22;64927;48.214;16.378;2023-02-01T09:25:46;8.40;62.40
76168;DHT22;64927;48.214;16.378;2023-02-01T09:28:13;8.30;63.50
76168;DHT22;64927;48.214;16.378;2023-02-01T09:30:41;8.20;64.30
76168;DHT22;64927;48.214;16.378;2023-02-01T09:33:09;8.20;64.50
76168;DHT22;64927;48.214;16.378;2023-02-01T09:35:35;8.20;64.20
76168;DHT22;64927;48.214;16.378;2023-02-01T09:38:01;8.20;64.70
76168;DHT22;64927;48.214;16.378;2023-02-01T09:40:26;8.10;64.80
76168;DHT22;64927;48.214;16.378;2023-02-01T09:43:41;8.10;64.60
76168;DHT22;64927;48.214;16.378;2023-02-01T09:46:32;8.00;66.30
76168;DHT22;64927;48.214;16.378;2023-02-01T09:49:05;7.90;66.20
76168;DHT22;64927;48.214;16.378;2023-02-01T09:51:39;7.80;67.50
76168;DHT22;64927;48.214;16.378;2023-02-01T09:54:19;7.70;68.30
76168;DHT22;64927;48.214;16.378;2023-02-01T09:56:55;7.60;69.20
76168;DHT22;64927;48.214;16.378;2023-02-01T09:59:39;7.70;67.60
76168;DHT22;64927;48.214;16.378;2023-02-01T10:02:30;7.60;67.60
76168;DHT22;64927;48.214;16.378;2023-02-01T10:05:04;7.70;68.10
76168;DHT22;64927;48.214;16.378;2023-02-01T10:07:59;7.90;68.00
76168;DHT22;64927;48.214;16.378;2023-02-01T10:10:38;7.90;66.40
76168;DHT22;64927;48.214;16.378;2023-02-01T10:13:12;8.10;66.00
76168;DHT22;64927;48.214;16.378;2023-02-01T10:15:52;8.10;65.90
76168;DHT22;64927;48.214;16.378;2023-02-01T10:24:13;8.40;63.60
76168;DHT22;64927;48.214;16.378;2023-02-01T10:26:49;8.60;63.60
76168;DHT22;64927;48.214;16.378;2023-02-01T10:29:19;8.60;62.80
76168;DHT22;64927;48.214;16.378;2023-02-01T10:31:48;8.70;62.50
76168;DHT22;64927;48.214;16.378;2023-02-01T10:34:22;8.90;62.50
76168;DHT22;64927;48.214;16.378;2023-02-01T10:37:16;8.90;62.10
76168;DHT22;64927;48.214;16.378;2023-02-01T10:39:48;9.00;61.80
76168;DHT22;64927;48.214;16.378;2023-02-01T10:42:18;9.10;61.20
76168;DHT22;64927;48.214;16.378;2023-02-01T10:44:46;9.20;60.00
76168;DHT22;64927;48.214;16.378;2023-02-01T10:47:13;9.20;60.00
76168;DHT22;64927;48.214;16.378;2023-02-01T10:52:40;9.10;60.50
76168;DHT22;64927;48.214;16.378;2023-02-01T10:55:49;9.00;61.80
76168;DHT22;64927;48.214;16.378;2023-02-01T10:58:20;8.80;62.60
76168;DHT22;64927;48.214;16.378;2023-02-01T11:01:03;8.70;63.10
76168;DHT22;64927;48.214;16.378;2023-02-01T11:03:51;8.50;65.10
76168;DHT22;64927;48.214;16.378;2023-02-01T11:08:49;8.20;66.30
76168;DHT22;64927;48.214;16.378;2023-02-01T11:11:16;8.20;66.80
76168;DHT22;64927;48.214;16.378;2023-02-01T11:13:42;8.40;66.90
76168;DHT22;64927;48.214;16.378;2023-02-01T11:16:13;8.50;67.00
76168;DHT22;64927;48.214;16.378;2023-02-01T11:18:40;8.50;66.20
76168;DHT22;64927;48.214;16.378;2023-02-01T11:21:07;8.30;67.90
76168;DHT22;64927;48.214;16.378;2023-02-01T11:23:43;8.20;67.80
76168;DHT22;64927;48.214;16.378;2023-02-01T11:26:28;8.10;69.40
76168;DHT22;64927;48.214;16.378;2023-02-01T11:29:10;8.00;69.90
76168;DHT22;64927;48.214;16.378;2023-02-01T11:31:36;7.90;70.40
76168;DHT22;64927;48.214;16.378;2023-02-01T11:34:14;7.60;71.20
76168;DHT22;64927;48.214;16.378;2023-02-01T11:36:41;7.50;72.30
76168;DHT22;64927;48.214;16.378;2023-02-01T11:39:30;7.40;72.80
76168;DHT22;64927;48.214;16.378;2023-02-01T11:42:16;7.20;73.30
76168;DHT22;64927;48.214;16.378;2023-02-01T11:44:48;7.10;75.50
76168;DHT22;64927;48.214;16.378;2023-02-01T11:47:31;7.10;75.70
76168;DHT22;64927;48.214;16.378;2023-02-01T11:50:18;7.00;75.10
76168;DHT22;64927;48.214;16.378;2023-02-01T11:59:05;6.90;76.60
76168;DHT22;64927;48.214;16.378;2023-02-01T12:10:18;7.30;75.70
76168;DHT22;64927;48.214;16.378;2023-02-01T12:21:28;7.50;75.70
76168;DHT22;64927;48.214;16.378;2023-02-01T12:30:02;7.70;75.00
76168;DHT22;64927;48.214;16.378;2023-02-01T12:32:49;7.70;75.00
76168;DHT22;64927;48.214;16.378;2023-02-01T12:35:33;7.80;74.30
76168;DHT22;64927;48.214;16.378;2023-02-01T12:41:10;8.10;72.70
76168;DHT22;64927;48.214;16.378;2023-02-01T12:46:41;8.20;70.80
76168;DHT22;64927;48.214;16.378;2023-02-01T12:52:09;8.20;70.00
76168;DHT22;64927;48.214;16.378;2023-02-01T12:54:45;8.40;70.00
76168;DHT22;64927;48.214;16.378;2023-02-01T12:57:27;8.40;69.40
76168;DHT22;64927;48.214;16.378;2023-02-01T13:02:48;8.60;68.50
76168;DHT22;64927;48.214;16.378;2023-02-01T13:05:21;8.60;68.20
76168;DHT22;64927;48.214;16.378;2023-02-01T13:08:04;8.50;68.00
76168;DHT22;64927;48.214;16.378;2023-02-01T13:13:21;8.50;68.60
76168;DHT22;64927;48.214;16.378;2023-02-01T13:16:20;8.50;67.30
76168;DHT22;64927;48.214;16.378;2023-02-01T13:18:55;8.50;67.10
76168;DHT22;64927;48.214;16.378;2023-02-01T13:21:25;8.40;67.60
76168;DHT22;64927;48.214;16.378;2023-02-01T13:23:52;8.40;67.70
76168;DHT22;64927;48.214;16.378;2023-02-01T13:28:56;8.50;68.00
76168;DHT22;64927;48.214;16.378;2023-02-01T13:32:04;8.50;67.20
76168;DHT22;64927;48.214;16.378;2023-02-01T13:35:21;8.50;66.90
76168;DHT22;64927;48.214;16.378;2023-02-01T13:41:15;8.60;65.80
76168;DHT22;64927;48.214;16.378;2023-02-01T13:44:28;8.70;65.50
76168;DHT22;64927;48.214;16.378;2023-02-01T13:46:57;8.60;61.40
76168;DHT22;64927;48.214;16.378;2023-02-01T13:49:31;8.60;59.40
76168;DHT22;64927;48.214;16.378;2023-02-01T13:52:00;8.70;59.40
76168;DHT22;64927;48.214;16.378;2023-02-01T13:54:46;8.60;59.40
76168;DHT22;64927;48.214;16.378;2023-02-01T13:57:38;8.60;58.90
76168;DHT22;64927;48.214;16.378;2023-02-01T14:10:50;8.50;60.70
76168;DHT22;64927;48.214;16.378;2023-02-01T14:13:39;8.60;61.10
76168;DHT22;64927;48.214;16.378;2023-02-01T14:23:55;8.40;61.70
76168;DHT22;64927;48.214;16.378;2023-02-01T14:34:50;8.30;61.50
76168;DHT22;64927;48.214;16.378;2023-02-01T14:39:58;8.20;61.40
76168;DHT22;64927;48.214;16.378;2023-02-01T14:56:00;7.90;62.80
76168;DHT22;64927;48.214;16.378;2023-02-01T15:01:34;7.80;62.70
76168;DHT22;64927;48.214;16.378;2023-02-01T15:06:51;7.90;62.60
76168;DHT22;64927;48.214;16.378;2023-02-01T15:09:35;7.80;62.50
76168;DHT22;64927;48.214;16.378;2023-02-01T15:14:34;7.80;62.70
76168;DHT22;64927;48.214;16.378;2023-02-01T15:17:00;7.90;62.40
76168;DHT22;64927;48.214;16.378;2023-02-01T15:19:28;7.80;62.50
76168;DHT22;64927;48.214;16.378;2023-02-01T15:21:56;7.90;62.30
76168;DHT22;64927;48.214;16.378;2023-02-01T15:24:24;7.90;62.00
76168;DHT22;64927;48.214;16.378;2023-02-01T15:26:52;7.90;61.70
76168;DHT22;64927;48.214;16.378;2023-02-01T15:29:19;7.90;61.70
76168;DHT22;64927;48.214;16.378;2023-02-01T15:31:54;7.90;62.00
76168;DHT22;64927;48.214;16.378;2023-02-01T15:34:20;7.90;61.80
76168;DHT22;64927;48.214;16.378;2023-02-01T15:36:48;7.90;62.40
76168;DHT22;64927;48.214;16.378;2023-02-01T15:39:24;7.90;61.70
76168;DHT22;64927;48.214;16.378;2023-02-01T15:41:58;7.90;61.90
76168;DHT22;64927;48.214;16.378;2023-02-01T15:44:32;7.80;61.80
76168;DHT22;64927;48.214;16.378;2023-02-01T15:46:59;7.90;61.60
76168;DHT22;64927;48.214;16.378;2023-02-01T15:49:37;7.90;61.10
76168;DHT22;64927;48.214;16.378;2023-02-01T15:52:03;7.80;61.20
76168;DHT22;64927;48.214;16.378;2023-02-01T15:54:40;7.80;61.10
76168;DHT22;64927;48.214;16.378;2023-02-01T15:57:09;7.80;60.60
76168;DHT22;64927;48.214;16.378;2023-02-01T15:59:43;7.70;60.60
76168;DHT22;64927;48.214;16.378;2023-02-01T16:04:52;7.70;60.30
76168;DHT22;64927;48.214;16.378;2023-02-01T16:07:29;7.70;60.60
76168;DHT22;64927;48.214;16.378;2023-02-01T16:09:57;7.70;60.40
76168;DHT22;64927;48.214;16.378;2023-02-01T16:12:47;7.80;60.00
76168;DHT22;64927;48.214;16.378;2023-02-01T16:15:13;7.80;59.70
76168;DHT22;64927;48.214;16.378;2023-02-01T16:17:39;7.80;59.40
76168;DHT22;64927;48.214;16.378;2023-02-01T16:20:05;7.80;59.20
76168;DHT22;64927;48.214;16.378;2023-02-01T16:22:31;7.80;59.30
76168;DHT22;64927;48.214;16.378;2023-02-01T16:24:56;7.80;59.30
76168;DHT22;64927;48.214;16.378;2023-02-01T16:27:22;7.90;59.50
76168;DHT22;64927;48.214;16.378;2023-02-01T16:29:50;7.80;60.00
76168;DHT22;64927;48.214;16.378;2023-02-01T16:32:20;7.90;59.80
76168;DHT22;64927;48.214;16.378;2023-02-01T16:34:47;7.90;59.70
76168;DHT22;64927;48.214;16.378;2023-02-01T16:37:16;7.90;60.00
76168;DHT22;64927;48.214;16.378;2023-02-01T16:39:42;7.90;60.00
76168;DHT22;64927;48.214;16.378;2023-02-01T16:42:15;7.90;60.10
76168;DHT22;64927;48.214;16.378;2023-02-01T16:44:41;7.90;60.10
76168;DHT22;64927;48.214;16.378;2023-02-01T16:47:21;8.00;60.20
76168;DHT22;64927;48.214;16.378;2023-02-01T16:49:48;7.90;60.60
76168;DHT22;64927;48.214;16.378;2023-02-01T16:52:24;7.90;60.60
76168;DHT22;64927;48.214;16.378;2023-02-01T16:54:52;8.00;60.60
76168;DHT22;64927;48.214;16.378;2023-02-01T16:57:21;8.00;60.50
76168;DHT22;64927;48.214;16.378;2023-02-01T16:59:53;8.00;61.00
76168;DHT22;64927;48.214;16.378;2023-02-01T17:02:23;7.90;61.00
76168;DHT22;64927;48.214;16.378;2023-02-01T17:04:49;8.00;61.00
76168;DHT22;64927;48.214;16.378;2023-02-01T17:07:17;7.90;61.20
76168;DHT22;64927;48.214;16.378;2023-02-01T17:09:44;7.90;61.50
76168;DHT22;64927;48.214;16.378;2023-02-01T17:12:26;7.90;61.60
76168;DHT22;64927;48.214;16.378;2023-02-01T17:14:52;7.90;62.00
76168;DHT22;64927;48.214;16.378;2023-02-01T17:17:20;8.00;62.00
76168;DHT22;64927;48.214;16.378;2023-02-01T17:19:52;7.90;62.30
76168;DHT22;64927;48.214;16.378;2023-02-01T17:22:24;7.90;62.20
76168;DHT22;64927;48.214;16.378;2023-02-01T17:24:52;7.90;62.50
76168;DHT22;64927;48.214;16.378;2023-02-01T17:27:18;7.90;62.60
76168;DHT22;64927;48.214;16.378;2023-02-01T17:29:44;7.90;62.80
76168;DHT22;64927;48.214;16.378;2023-02-01T17:32:19;7.80;63.50
76168;DHT22;64927;48.214;16.378;2023-02-01T17:34:46;7.80;63.60
76168;DHT22;64927;48.214;16.378;2023-02-01T17:37:38;7.80;63.60
76168;DHT22;64927;48.214;16.378;2023-02-01T17:40:05;7.60;64.40
76168;DHT22;64927;48.214;16.378;2023-02-01T17:42:31;7.70;64.20
76168;DHT22;64927;48.214;16.378;2023-02-01T17:45:00;7.70;64.20
76168;DHT22;64927;48.214;16.378;2023-02-01T17:47:28;7.70;64.20
76168;DHT22;64927;48.214;16.378;2023-02-01T17:49:54;7.70;64.20
76168;DHT22;64927;48.214;16.378;2023-02-01T17:52:22;7.80;64.10
76168;DHT22;64927;48.214;16.378;2023-02-01T17:54:48;7.70;63.80
76168;DHT22;64927;48.214;16.378;2023-02-01T17:57:18;7.70;63.50
76168;DHT22;64927;48.214;16.378;2023-02-01T17:59:46;7.70;63.30
76168;DHT22;64927;48.214;16.378;2023-02-01T18:02:21;7.80;63.40
76168;DHT22;64927;48.214;16.378;2023-02-01T18:04:49;7.80;63.40
76168;DHT22;64927;48.214;16.378;2023-02-01T18:07:16;7.80;63.50
76168;DHT22;64927;48.214;16.378;2023-02-01T18:09:44;7.70;63.50
76168;DHT22;64927;48.214;16.378;2023-02-01T18:12:19;7.70;63.60
76168;DHT22;64927;48.214;16.378;2023-02-01T18:14:46;7.60;63.90
76168;DHT22;64927;48.214;16.378;2023-02-01T18:17:15;7.70;63.50
76168;DHT22;64927;48.214;16.378;2023-02-01T18:19:43;7.70;63.10
76168;DHT22;64927;48.214;16.378;2023-02-01T18:22:15;7.80;62.80
76168;DHT22;64927;48.214;16.378;2023-02-01T18:24:42;7.80;62.70
76168;DHT22;64927;48.214;16.378;2023-02-01T18:27:08;7.80;62.90